createdAt,value
2022-10-03T00:01:23.246Z,10.00
2022-10-03T00:04:02.484Z,7.10
2022-10-03T00:06:40.484Z,11.33
2022-10-03T00:09:20.358Z,9.43
2022-10-03T00:12:04.629Z,6.73
2022-10-03T00:14:45.576Z,12.63
2022-10-03T00:17:20.641Z,9.57
2022-10-03T00:19:58.662Z,10.97
2022-10-03T00:22:36.673Z,10.73
2022-10-03T00:25:24.607Z,10.73
2022-10-03T00:28:08.494Z,13.37
2022-10-03T00:30:54.547Z,12.47
2022-10-03T00:33:34.214Z,7.67
2022-10-03T00:36:09.418Z,12.53
2022-10-03T00:39:08.350Z,10.10
2022-10-03T00:42:32.946Z,11.40
2022-10-03T00:45:40.389Z,13.83
2022-10-03T00:48:32.603Z,17.67
2022-10-03T00:51:25.470Z,12.37
2022-10-03T00:54:09.853Z,11.40
2022-10-03T00:56:58.206Z,12.30
2022-10-03T00:59:48.935Z,9.47
2022-10-03T01:02:36.765Z,14.10
2022-10-03T01:05:13.640Z,15.93
2022-10-03T01:08:03.696Z,13.43
2022-10-03T01:10:42.533Z,11.37
2022-10-03T01:13:23.598Z,14.70
2022-10-03T01:16:00.890Z,13.47
2022-10-03T01:18:40.412Z,13.07
2022-10-03T01:21:17.584Z,12.67
2022-10-03T01:24:20.811Z,12.03
2022-10-03T01:27:01.047Z,11.40
2022-10-03T01:30:02.192Z,12.70
2022-10-03T01:32:35.968Z,13.57
2022-10-03T01:35:15.969Z,11.30
2022-10-03T01:37:53.585Z,12.83
2022-10-03T01:40:29.616Z,16.60
2022-10-03T01:43:06.321Z,14.17
2022-10-03T01:45:47.623Z,17.43
2022-10-03T01:48:23.198Z,15.80
2022-10-03T01:51:00.737Z,13.00
2022-10-03T01:53:39.360Z,12.00
2022-10-03T01:56:13.647Z,16.00
2022-10-03T01:58:56.765Z,17.03
2022-10-03T02:01:32.480Z,13.47
2022-10-03T02:04:08.039Z,14.00
2022-10-03T02:06:53.732Z,13.93
2022-10-03T02:09:32.358Z,13.43
2022-10-03T02:12:15.171Z,19.00
2022-10-03T02:14:52.629Z,13.33
2022-10-03T02:17:30.557Z,16.30
2022-10-03T02:20:07.874Z,13.23
2022-10-03T02:22:39.493Z,12.73
2022-10-03T02:25:20.514Z,14.53
2022-10-03T02:28:20.886Z,16.13
2022-10-03T02:31:06.914Z,9.30
2022-10-03T02:34:03.406Z,9.13
2022-10-03T02:36:54.231Z,16.03
2022-10-03T02:40:08.677Z,14.07
2022-10-03T02:43:05.676Z,10.37
2022-10-03T02:46:01.918Z,13.73
2022-10-03T02:48:48.162Z,15.37
2022-10-03T02:51:53.391Z,14.87
2022-10-03T02:54:52.300Z,14.40
2022-10-03T02:58:09.740Z,13.73
2022-10-03T03:01:05.366Z,16.27
2022-10-03T03:04:09.985Z,15.83
2022-10-03T03:06:55.758Z,11.37
2022-10-03T03:10:04.816Z,14.97
2022-10-03T03:12:56.686Z,17.63
2022-10-03T03:16:00.588Z,14.83
2022-10-03T03:18:37.826Z,15.93
2022-10-03T03:21:27.901Z,19.47
2022-10-03T03:24:26.527Z,17.10
2022-10-03T03:27:22.253Z,21.87
2022-10-03T03:29:57.838Z,13.90
2022-10-03T03:32:37.949Z,16.20
2022-10-03T03:35:13.683Z,16.90
2022-10-03T03:37:50.119Z,15.27
2022-10-03T03:40:32.751Z,17.90
2022-10-03T03:43:25.828Z,17.20
2022-10-03T03:46:06.622Z,14.37
2022-10-03T03:49:02.096Z,14.87
2022-10-03T03:51:42.283Z,12.40
2022-10-03T03:54:52.840Z,21.87
2022-10-03T03:57:59.915Z,13.73
2022-10-03T04:00:47.239Z,11.47
2022-10-03T04:03:28.466Z,14.70
2022-10-03T04:06:22.548Z,14.83
2022-10-03T04:09:09.110Z,12.23
2022-10-03T04:11:50.214Z,13.70
2022-10-03T04:14:59.854Z,11.60
2022-10-03T04:18:09.938Z,13.23
2022-10-03T04:20:53.456Z,10.63
2022-10-03T04:23:44.407Z,12.90
2022-10-03T04:26:25.769Z,15.23
2022-10-03T04:29:29.215Z,15.30
2022-10-03T04:32:07.901Z,12.43
2022-10-03T04:34:48.705Z,10.07
2022-10-03T04:37:24.416Z,12.13
2022-10-03T04:40:07.742Z,12.30
2022-10-03T04:42:48.716Z,11.57
2022-10-03T04:45:32.795Z,13.23
2022-10-03T04:48:11.239Z,13.60
2022-10-03T04:50:45.528Z,11.60
2022-10-03T04:53:25.005Z,13.63
2022-10-03T04:56:01.838Z,13.30
2022-10-03T04:58:38.687Z,18.60
2022-10-03T05:01:15.630Z,13.17
2022-10-03T05:03:55.137Z,13.53
2022-10-03T05:06:38.824Z,14.73
2022-10-03T05:09:22.861Z,11.23
2022-10-03T05:12:01.112Z,11.63
2022-10-03T05:14:41.360Z,14.33
2022-10-03T05:17:19.781Z,9.87
2022-10-03T05:20:31.059Z,14.57
2022-10-03T05:23:13.272Z,17.10
2022-10-03T05:25:55.127Z,13.80
2022-10-03T05:28:31.928Z,16.63
2022-10-03T05:31:07.746Z,14.00
2022-10-03T05:33:43.997Z,8.33
2022-10-03T05:36:26.417Z,14.27
2022-10-03T05:39:23.679Z,10.80
2022-10-03T05:42:17.899Z,9.43
2022-10-03T05:44:46.971Z,13.80
2022-10-03T05:47:44.939Z,11.23
2022-10-03T05:50:43.635Z,10.77
2022-10-03T05:53:37.950Z,11.23
2022-10-03T05:56:15.323Z,11.60
2022-10-03T05:59:19.411Z,9.67
2022-10-03T06:02:07.159Z,11.37
2022-10-03T06:05:03.101Z,10.97
2022-10-03T06:07:38.982Z,11.03
2022-10-03T06:10:43.983Z,13.80
2022-10-03T06:13:19.837Z,13.23
2022-10-03T06:16:00.210Z,9.40
2022-10-03T06:19:08.655Z,17.37
2022-10-03T06:22:19.051Z,12.53
2022-10-03T06:25:32.492Z,17.27
2022-10-03T06:28:31.440Z,12.23
2022-10-03T06:31:39.575Z,15.93
2022-10-03T06:34:32.883Z,15.83
2022-10-03T06:37:36.397Z,14.63
2022-10-03T06:40:48.359Z,13.80
2022-10-03T06:43:48.157Z,12.30
2022-10-03T06:46:52.307Z,11.57
2022-10-03T06:49:57.344Z,14.33
2022-10-03T06:52:59.338Z,13.03
2022-10-03T06:56:02.089Z,12.23
2022-10-03T06:59:00.084Z,10.67
2022-10-03T07:02:13.247Z,15.50
2022-10-03T07:05:19.516Z,9.53
2022-10-03T07:08:16.464Z,12.53
2022-10-03T07:10:59.925Z,10.43
2022-10-03T07:13:46.523Z,8.73
2022-10-03T07:16:56.869Z,9.13
2022-10-03T07:20:08.410Z,12.80
2022-10-03T07:23:16.963Z,13.53
2022-10-03T07:26:13.365Z,12.63
2022-10-03T07:29:16.469Z,11.23
2022-10-03T07:32:07.469Z,8.50
2022-10-03T07:35:09.680Z,10.50
2022-10-03T07:38:12.339Z,16.27
2022-10-03T07:41:19.327Z,11.13
2022-10-03T07:44:11.878Z,10.70
2022-10-03T07:47:22.270Z,8.90
2022-10-03T07:50:04.062Z,10.80
2022-10-03T07:53:02.273Z,8.97
2022-10-03T07:55:43.709Z,9.97
2022-10-03T07:58:42.390Z,7.97
2022-10-03T08:01:56.316Z,9.20
2022-10-03T08:04:55.244Z,5.30
2022-10-03T08:07:46.377Z,10.70
2022-10-03T08:10:47.588Z,10.17
2022-10-03T08:13:42.176Z,7.90
2022-10-03T08:16:25.536Z,5.93
2022-10-03T08:19:18.695Z,8.90
2022-10-03T08:21:59.692Z,8.90
2022-10-03T08:25:01.943Z,11.20
2022-10-03T08:28:00.308Z,11.67
2022-10-03T08:30:41.181Z,9.60
2022-10-03T08:33:41.954Z,11.63
2022-10-03T08:36:35.452Z,9.40
2022-10-03T08:39:15.136Z,11.27
2022-10-03T08:42:30.757Z,10.10
2022-10-03T08:45:19.835Z,10.63
2022-10-03T08:48:32.621Z,10.60
2022-10-03T08:51:38.134Z,10.40
2022-10-03T08:54:22.318Z,9.17
2022-10-03T08:57:06.282Z,14.70
2022-10-03T09:00:09.181Z,13.07
2022-10-03T09:03:36.631Z,12.53
2022-10-03T09:07:16.170Z,9.67
2022-10-03T09:10:09.560Z,11.50
2022-10-03T09:13:06.037Z,7.47
2022-10-03T09:16:18.509Z,10.87
2022-10-03T09:19:05.012Z,9.07
2022-10-03T09:22:11.808Z,6.80
2022-10-03T09:25:11.639Z,7.60
2022-10-03T09:28:06.186Z,5.43
2022-10-03T09:30:51.329Z,7.10
2022-10-03T09:33:49.251Z,8.23
2022-10-03T09:36:57.057Z,6.50
2022-10-03T09:40:06.880Z,10.30
2022-10-03T09:43:04.434Z,7.00
2022-10-03T09:45:57.139Z,7.90
2022-10-03T09:48:44.820Z,12.67
2022-10-03T09:51:30.198Z,7.87
2022-10-03T09:54:33.145Z,5.07
2022-10-03T09:57:27.293Z,8.03
2022-10-03T10:00:20.369Z,6.53
2022-10-03T10:03:20.727Z,6.63
2022-10-03T10:06:04.624Z,9.13
2022-10-03T10:08:51.344Z,7.50
2022-10-03T10:11:32.975Z,6.73
2022-10-03T10:14:29.103Z,6.10
2022-10-03T10:17:28.067Z,4.97
2022-10-03T10:20:24.771Z,7.47
2022-10-03T10:23:22.768Z,5.30
2022-10-03T10:26:15.795Z,5.20
2022-10-03T10:29:08.999Z,11.33
2022-10-03T10:32:21.294Z,8.37
2022-10-03T10:35:16.039Z,7.37
2022-10-03T10:38:15.758Z,4.87
2022-10-03T10:41:16.907Z,7.17
2022-10-03T10:44:30.856Z,7.00
2022-10-03T10:47:29.027Z,7.70
2022-10-03T10:50:36.301Z,8.37
2022-10-03T10:53:41.041Z,8.20
2022-10-03T10:56:43.550Z,6.90
2022-10-03T10:59:47.216Z,9.27
2022-10-03T11:02:59.480Z,8.27
2022-10-03T11:06:18.330Z,5.63
2022-10-03T11:09:10.559Z,12.00
2022-10-03T11:12:25.995Z,8.27
2022-10-03T11:15:47.638Z,12.07
2022-10-03T11:18:47.858Z,9.23
2022-10-03T11:22:11.744Z,10.97
2022-10-03T11:25:16.974Z,11.13
2022-10-03T11:28:29.896Z,10.67
2022-10-03T11:31:41.727Z,10.90
2022-10-03T11:34:50.762Z,9.53
2022-10-03T11:37:44.208Z,12.07
2022-10-03T11:40:32.418Z,10.77
2022-10-03T11:43:51.660Z,9.43
2022-10-03T11:46:31.649Z,12.23
2022-10-03T11:49:07.415Z,7.77
2022-10-03T11:51:44.098Z,7.97
2022-10-03T11:54:32.006Z,6.60
2022-10-03T11:57:06.448Z,8.13
2022-10-03T11:59:50.989Z,6.27
2022-10-03T12:02:38.751Z,7.10
2022-10-03T12:05:15.293Z,10.47
2022-10-03T12:08:04.589Z,9.27
2022-10-03T12:10:45.055Z,9.67
2022-10-03T12:13:16.657Z,6.70
2022-10-03T12:15:48.622Z,7.73
2022-10-03T12:18:25.829Z,8.97
2022-10-03T12:21:11.070Z,8.90
2022-10-03T12:24:18.353Z,13.27
2022-10-03T12:26:58.362Z,11.90
2022-10-03T12:29:28.608Z,10.13
2022-10-03T12:32:15.997Z,8.07
2022-10-03T12:34:50.145Z,9.10
2022-10-03T12:37:37.388Z,8.80
2022-10-03T12:40:13.297Z,6.17
2022-10-03T12:42:49.267Z,7.87
2022-10-03T12:45:27.673Z,7.20
2022-10-03T12:48:07.481Z,9.87
2022-10-03T12:50:43.297Z,7.33
2022-10-03T12:53:30.924Z,9.63
2022-10-03T12:56:07.963Z,7.97
2022-10-03T12:58:52.567Z,8.97
2022-10-03T13:01:29.917Z,10.07
2022-10-03T13:04:01.928Z,10.00
2022-10-03T13:07:02.362Z,9.17
2022-10-03T13:09:48.006Z,7.40
2022-10-03T13:12:28.094Z,10.97
2022-10-03T13:15:31.719Z,11.13
2022-10-03T13:18:05.850Z,9.73
2022-10-03T13:20:37.593Z,7.80
2022-10-03T13:23:11.784Z,10.67
2022-10-03T13:25:46.409Z,10.43
2022-10-03T13:28:18.697Z,11.00
2022-10-03T13:30:49.776Z,11.47
2022-10-03T13:33:23.244Z,11.10
2022-10-03T13:36:01.683Z,11.47
2022-10-03T13:39:01.130Z,15.87
2022-10-03T13:41:34.993Z,16.97
2022-10-03T13:44:09.605Z,17.10
2022-10-03T13:46:45.424Z,12.43
2022-10-03T13:49:20.104Z,14.03
2022-10-03T13:51:58.242Z,15.97
2022-10-03T13:55:02.308Z,13.00
2022-10-03T13:57:34.986Z,20.67
2022-10-03T14:00:09.658Z,13.63
2022-10-03T14:02:59.919Z,8.90
2022-10-03T14:06:05.370Z,10.63
2022-10-03T14:08:56.719Z,10.83
2022-10-03T14:11:31.854Z,12.77
2022-10-03T14:14:28.485Z,12.00
2022-10-03T14:17:13.065Z,14.93
2022-10-03T14:19:53.823Z,15.03
2022-10-03T14:22:50.319Z,19.13
2022-10-03T14:25:30.600Z,21.77
2022-10-03T14:28:04.705Z,17.00
2022-10-03T14:31:04.988Z,18.77
2022-10-03T14:33:41.259Z,22.30
2022-10-03T14:36:31.206Z,18.57
2022-10-03T14:39:21.749Z,31.10
2022-10-03T14:42:09.209Z,16.43
2022-10-03T14:44:40.922Z,12.93
2022-10-03T14:47:12.376Z,17.63
2022-10-03T14:49:56.380Z,15.83
2022-10-03T14:52:31.819Z,13.13
2022-10-03T14:55:09.805Z,13.33
2022-10-03T14:58:08.754Z,16.37
2022-10-03T15:00:43.798Z,18.10
2022-10-03T15:03:30.642Z,19.53
2022-10-03T15:06:02.741Z,13.70
2022-10-03T15:08:39.319Z,17.93
2022-10-03T15:11:10.181Z,15.57
2022-10-03T15:13:45.824Z,19.83
2022-10-03T15:16:20.270Z,16.43
2022-10-03T15:18:54.883Z,15.90
2022-10-03T15:21:24.114Z,14.40
2022-10-03T15:23:57.228Z,12.00
2022-10-03T15:26:30.581Z,13.03
2022-10-03T15:29:00.994Z,10.53
2022-10-03T15:31:36.060Z,11.47
2022-10-03T15:34:07.355Z,11.83
2022-10-03T15:36:39.158Z,12.03
2022-10-03T15:39:19.534Z,10.80
2022-10-03T15:41:55.572Z,13.47
2022-10-03T15:44:32.973Z,13.10
2022-10-03T15:47:06.178Z,12.50
2022-10-03T15:49:39.287Z,10.97
2022-10-03T15:52:15.865Z,16.08
2022-10-03T15:54:49.549Z,13.27
2022-10-03T15:57:26.060Z,14.13
2022-10-03T16:00:02.960Z,13.63
2022-10-03T16:02:36.546Z,18.90
2022-10-03T16:05:07.718Z,16.73
2022-10-03T16:07:42.698Z,11.93
2022-10-03T16:10:20.525Z,17.23
2022-10-03T16:13:08.369Z,12.87
2022-10-03T16:15:54.507Z,12.80
2022-10-03T16:18:57.733Z,11.83
2022-10-03T16:21:45.364Z,11.43
2022-10-03T16:24:29.778Z,11.17
2022-10-03T16:27:05.693Z,11.90
2022-10-03T16:29:37.396Z,11.67
2022-10-03T16:32:08.066Z,13.53
2022-10-03T16:34:39.540Z,12.70
2022-10-03T16:37:17.965Z,11.97
2022-10-03T16:39:53.921Z,12.07
2022-10-03T16:42:26.080Z,16.90
2022-10-03T16:44:58.087Z,17.67
2022-10-03T16:47:36.524Z,14.83
2022-10-03T16:50:27.086Z,16.10
2022-10-03T16:52:58.862Z,15.33
2022-10-03T16:55:30.729Z,13.43
2022-10-03T16:58:03.800Z,11.60
2022-10-03T17:01:09.056Z,12.97
2022-10-03T17:03:45.145Z,15.47
2022-10-03T17:06:22.261Z,15.10
2022-10-03T17:08:52.813Z,15.10
2022-10-03T17:11:26.246Z,13.90
2022-10-03T17:13:56.953Z,16.40
2022-10-03T17:16:37.479Z,20.93
2022-10-03T17:19:17.269Z,19.33
2022-10-03T17:21:53.884Z,23.33
2022-10-03T17:24:42.989Z,23.53
2022-10-03T17:27:18.054Z,18.87
2022-10-03T17:29:51.217Z,19.37
2022-10-03T17:32:26.853Z,18.07
2022-10-03T17:35:01.301Z,18.83
2022-10-03T17:37:55.567Z,18.60
2022-10-03T17:40:32.020Z,17.10
2022-10-03T17:43:06.608Z,18.00
2022-10-03T17:45:42.522Z,16.43
2022-10-03T17:48:19.269Z,17.40
2022-10-03T17:50:55.297Z,13.37
2022-10-03T17:53:27.180Z,16.37
2022-10-03T17:55:58.630Z,12.47
2022-10-03T17:58:31.474Z,19.87
2022-10-03T18:01:10.126Z,14.07
2022-10-03T18:03:47.873Z,12.53
2022-10-03T18:06:52.680Z,14.97
2022-10-03T18:09:29.573Z,20.00
2022-10-03T18:12:16.847Z,16.53
2022-10-03T18:15:20.167Z,16.70
2022-10-03T18:18:03.425Z,16.10
2022-10-03T18:20:45.679Z,13.67
2022-10-03T18:23:49.911Z,18.20
2022-10-03T18:26:23.112Z,16.67
2022-10-03T18:29:00.510Z,15.37
2022-10-03T18:31:31.099Z,16.73
2022-10-03T18:34:02.763Z,14.57
2022-10-03T18:36:34.937Z,17.70
2022-10-03T18:39:10.320Z,14.10
2022-10-03T18:41:46.130Z,18.37
2022-10-03T18:44:18.849Z,13.07
2022-10-03T18:46:51.700Z,11.50
2022-10-03T18:49:34.349Z,12.63
2022-10-03T18:52:11.735Z,10.37
2022-10-03T18:54:57.764Z,12.00
2022-10-03T18:57:35.441Z,13.93
2022-10-03T19:00:07.652Z,10.17
2022-10-03T19:02:39.245Z,13.47
2022-10-03T19:05:14.620Z,12.53
2022-10-03T19:07:52.018Z,14.80
2022-10-03T19:10:40.227Z,12.77
2022-10-03T19:13:21.043Z,17.43
2022-10-03T19:16:15.103Z,16.57
2022-10-03T19:18:45.351Z,12.57
2022-10-03T19:21:20.076Z,15.00
2022-10-03T19:23:53.097Z,11.23
2022-10-03T19:26:25.639Z,10.47
2022-10-03T19:28:57.464Z,12.57
2022-10-03T19:31:30.731Z,8.80
2022-10-03T19:34:03.293Z,10.93
2022-10-03T19:36:35.713Z,13.03
2022-10-03T19:39:05.974Z,15.67
2022-10-03T19:41:38.964Z,15.13
2022-10-03T19:44:08.880Z,13.40
2022-10-03T19:46:52.014Z,12.27
2022-10-03T19:49:43.802Z,16.63
2022-10-03T19:52:17.265Z,16.33
2022-10-03T19:54:54.985Z,16.03
2022-10-03T19:57:29.516Z,16.50
2022-10-03T20:00:01.434Z,21.50
2022-10-03T20:02:30.329Z,16.20
2022-10-03T20:04:59.525Z,16.93
2022-10-03T20:07:44.932Z,18.23
2022-10-03T20:10:34.108Z,15.50
2022-10-03T20:13:03.983Z,17.67
2022-10-03T20:15:41.922Z,19.13
2022-10-03T20:18:23.027Z,17.03
2022-10-03T20:20:54.462Z,18.10
2022-10-03T20:23:25.722Z,24.00
2022-10-03T20:26:00.373Z,19.13
2022-10-03T20:28:45.365Z,18.23
2022-10-03T20:31:22.661Z,21.07
2022-10-03T20:33:53.307Z,18.43
2022-10-03T20:36:24.940Z,17.83
2022-10-03T20:39:06.178Z,19.30
2022-10-03T20:41:45.546Z,18.23
2022-10-03T20:44:18.152Z,17.00
2022-10-03T20:46:48.754Z,22.87
2022-10-03T20:49:32.576Z,18.53
2022-10-03T20:52:04.503Z,24.07
2022-10-03T20:54:37.738Z,19.90
2022-10-03T20:57:17.996Z,28.07
2022-10-03T20:59:48.632Z,19.83
2022-10-03T21:02:27.004Z,21.77
2022-10-03T21:04:59.934Z,20.87
2022-10-03T21:07:37.634Z,19.30
2022-10-03T21:10:24.245Z,18.00
2022-10-03T21:12:56.524Z,16.07
2022-10-03T21:15:36.242Z,15.20
2022-10-03T21:18:05.487Z,18.10
2022-10-03T21:20:37.838Z,17.47
2022-10-03T21:23:14.753Z,12.30
2022-10-03T21:25:45.203Z,19.43
2022-10-03T21:28:25.565Z,19.17
2022-10-03T21:31:13.220Z,14.00
2022-10-03T21:33:49.347Z,20.57
2022-10-03T21:36:25.041Z,12.93
2022-10-03T21:38:53.368Z,21.33
2022-10-03T21:41:29.421Z,15.20
2022-10-03T21:44:01.748Z,11.23
2022-10-03T21:46:40.327Z,15.20
2022-10-03T21:49:31.016Z,18.23
2022-10-03T21:52:14.764Z,16.80
2022-10-03T21:54:56.194Z,9.30
2022-10-03T21:57:33.957Z,15.10
2022-10-03T22:00:12.055Z,20.37
2022-10-03T22:02:52.429Z,18.57
2022-10-03T22:05:28.216Z,15.27
2022-10-03T22:07:56.903Z,16.07
2022-10-03T22:10:28.449Z,18.83
2022-10-03T22:13:00.753Z,15.27
2022-10-03T22:15:39.620Z,17.20
2022-10-03T22:18:12.156Z,15.97
2022-10-03T22:20:52.609Z,18.77
2022-10-03T22:23:28.755Z,18.70
2022-10-03T22:26:09.163Z,19.63
2022-10-03T22:28:49.575Z,23.20
2022-10-03T22:31:28.566Z,24.47
2022-10-03T22:34:08.431Z,14.77
2022-10-03T22:36:38.018Z,15.47
2022-10-03T22:39:10.940Z,18.00
2022-10-03T22:41:40.795Z,21.53
2022-10-03T22:44:11.307Z,20.33
2022-10-03T22:46:45.699Z,19.10
2022-10-03T22:49:19.246Z,23.40
2022-10-03T22:51:50.596Z,17.53
2022-10-03T22:54:20.111Z,13.67
2022-10-03T22:56:53.044Z,15.50
2022-10-03T22:59:24.635Z,16.97
2022-10-03T23:01:56.028Z,14.87
2022-10-03T23:04:31.596Z,18.83
2022-10-03T23:07:23.098Z,12.80
2022-10-03T23:10:01.660Z,17.67
2022-10-03T23:12:37.729Z,16.90
2022-10-03T23:15:07.893Z,16.37
2022-10-03T23:18:00.507Z,23.20
2022-10-03T23:20:49.137Z,16.93
2022-10-03T23:23:22.108Z,15.23
2022-10-03T23:26:03.118Z,16.53
2022-10-03T23:28:41.494Z,12.23
2022-10-03T23:31:30.463Z,20.63
2022-10-03T23:34:02.010Z,13.67
2022-10-03T23:36:31.645Z,16.53
2022-10-03T23:39:01.512Z,17.40
2022-10-03T23:41:58.451Z,16.67
2022-10-03T23:44:49.226Z,19.50
2022-10-03T23:47:20.087Z,12.93
2022-10-03T23:49:50.953Z,15.00
2022-10-03T23:52:23.377Z,21.90
2022-10-03T23:54:54.381Z,13.70
2022-10-03T23:57:32.324Z,15.27
